createdAt,value
2023-02-16T00:08:20.481Z,101490.97
2023-02-16T00:18:21.716Z,101499.91
2023-02-16T00:28:23.030Z,101482.53
2023-02-16T00:38:24.274Z,101478.44
2023-02-16T00:48:25.505Z,101479.44
2023-02-16T00:58:26.770Z,101477.50
2023-02-16T01:08:46.985Z,101482.28
2023-02-16T01:18:48.240Z,101482.69
2023-02-16T01:28:49.657Z,101492.72
2023-02-16T01:38:50.915Z,101474.63
2023-02-16T01:48:52.205Z,101479.41
2023-02-16T01:58:53.524Z,101472.13
2023-02-16T02:08:54.753Z,101466.31
2023-02-16T02:18:56.001Z,101455.19
2023-02-16T02:28:57.233Z,101445.81
2023-02-16T02:38:58.866Z,101432.25
2023-02-16T02:49:00.143Z,101436.72
2023-02-16T02:59:19.898Z,101442.66
2023-02-16T03:09:21.140Z,101436.06
2023-02-16T03:19:41.194Z,101435.47
2023-02-16T03:29:42.454Z,101431.41
2023-02-16T03:40:02.511Z,101432.16
2023-02-16T03:50:03.714Z,101430.72
2023-02-16T04:00:05.106Z,101425.50
2023-02-16T04:10:06.377Z,101449.56
2023-02-16T04:20:07.720Z,101444.03
2023-02-16T04:30:09.067Z,101442.59
2023-02-16T04:40:13.431Z,101432.50
2023-02-16T04:50:14.683Z,101445.38
2023-02-16T05:00:15.953Z,101440.81
2023-02-16T05:10:17.186Z,101443.47
2023-02-16T05:20:18.432Z,101445.25
2023-02-16T05:30:20.010Z,101445.78
2023-02-16T05:40:21.277Z,101436.78
2023-02-16T05:50:22.552Z,101445.75
2023-02-16T06:00:23.823Z,101438.59
2023-02-16T06:10:25.225Z,101442.75
2023-02-16T06:20:26.467Z,101449.78
2023-02-16T06:30:27.930Z,101467.38
2023-02-16T06:40:29.158Z,101478.19
2023-02-16T06:50:30.385Z,101483.13
2023-02-16T07:00:31.645Z,101489.13
2023-02-16T07:10:47.663Z,101493.78
2023-02-16T07:20:50.437Z,101494.72
2023-02-16T07:30:51.921Z,101507.34
2023-02-16T07:40:53.146Z,101494.44
2023-02-16T07:50:54.543Z,101495.09
2023-02-16T08:00:55.798Z,101495.09
2023-02-16T08:10:57.014Z,101511.47
2023-02-16T08:21:04.138Z,101518.97
2023-02-16T08:31:06.454Z,101507.22
2023-02-16T08:41:07.998Z,101516.66
2023-02-16T08:51:09.965Z,101510.91
2023-02-16T09:01:11.768Z,101506.28
2023-02-16T09:11:13.077Z,101507.88
2023-02-16T09:21:15.598Z,101522.63
2023-02-16T09:31:17.164Z,101501.69
2023-02-16T09:41:18.428Z,101491.97
2023-02-16T09:51:20.928Z,101485.00
2023-02-16T10:01:24.812Z,101485.75
2023-02-16T10:11:38.211Z,101480.81
2023-02-16T10:21:40.495Z,101458.66
2023-02-16T10:31:44.803Z,101450.31
2023-02-16T10:41:46.074Z,101442.75
2023-02-16T10:51:48.846Z,101435.91
2023-02-16T11:01:50.186Z,101425.28
2023-02-16T11:11:51.460Z,101421.06
2023-02-16T11:21:55.077Z,101409.09
2023-02-16T11:31:56.592Z,101393.75
2023-02-16T11:41:57.907Z,101374.81
2023-02-16T11:51:59.136Z,101342.59
2023-02-16T12:02:00.606Z,101340.00
2023-02-16T12:12:02.928Z,101329.50
2023-02-16T12:22:04.146Z,101332.16
2023-02-16T12:32:05.625Z,101318.16
2023-02-16T12:42:06.885Z,101309.38
2023-02-16T12:52:08.129Z,101296.19
2023-02-16T13:02:09.321Z,101279.50
2023-02-16T13:12:11.475Z,101269.06
2023-02-16T13:22:12.715Z,101264.44
2023-02-16T13:42:15.655Z,101245.94
2023-02-16T13:52:16.885Z,101234.59
2023-02-16T14:02:18.322Z,101224.94
2023-02-16T14:12:19.607Z,101220.50
2023-02-16T14:22:21.103Z,101213.59
2023-02-16T14:32:22.569Z,101204.00
2023-02-16T14:42:23.791Z,101202.28
2023-02-16T14:52:25.047Z,101199.66
2023-02-16T15:02:26.275Z,101190.25
2023-02-16T15:12:27.497Z,101195.53
2023-02-16T15:22:29.934Z,101195.53
2023-02-16T15:32:31.480Z,101191.22
2023-02-16T15:42:34.158Z,101191.28
2023-02-16T15:52:35.674Z,101180.88
2023-02-16T16:02:36.931Z,101191.38
2023-02-16T16:12:38.383Z,101192.22
2023-02-16T16:22:39.703Z,101192.28
2023-02-16T16:32:41.611Z,101186.31
2023-02-16T16:42:42.828Z,101186.31
2023-02-16T16:52:44.126Z,101189.91
2023-02-16T17:02:45.428Z,101196.03
2023-02-16T17:12:46.643Z,101197.78
2023-02-16T17:22:47.862Z,101204.78
2023-02-16T17:32:49.174Z,101201.28
2023-02-16T17:42:50.415Z,101203.88
2023-02-16T17:52:57.047Z,101202.16
2023-02-16T18:02:58.316Z,101210.00
2023-02-16T18:12:59.632Z,101210.00
2023-02-16T18:23:01.318Z,101207.38
2023-02-16T18:33:02.611Z,101213.50
2023-02-16T18:43:03.853Z,101208.22
2023-02-16T18:53:05.074Z,101207.38
2023-02-16T19:03:06.334Z,101189.06
2023-02-16T19:13:07.631Z,101196.91
2023-02-16T19:23:08.874Z,101192.56
2023-02-16T19:33:10.406Z,101197.78
2023-02-16T19:43:11.664Z,101201.28
2023-02-16T19:53:12.954Z,101210.84
2023-02-16T20:03:14.183Z,101215.25
2023-02-16T20:13:15.437Z,101226.56
2023-02-16T20:23:16.656Z,101226.56
2023-02-16T20:33:19.732Z,101224.81
2023-02-16T20:43:21.007Z,101222.19
2023-02-16T20:53:22.217Z,101204.78
2023-02-16T21:03:23.459Z,101205.63
2023-02-16T21:13:24.771Z,101193.41
2023-02-16T21:23:26.014Z,101190.81
2023-02-16T21:33:27.420Z,101191.66
2023-02-16T21:43:28.643Z,101190.81
2023-02-16T21:53:29.834Z,101183.84
2023-02-16T22:03:31.046Z,101172.50
2023-02-16T22:13:32.442Z,101162.91
2023-02-16T22:23:33.706Z,101176.84
2023-02-16T22:33:34.928Z,101174.25
2023-02-16T22:43:36.156Z,101159.44
2023-02-16T22:53:37.445Z,101158.56
2023-02-16T23:03:38.707Z,101159.44
2023-02-16T23:13:39.977Z,101156.81
2023-02-16T23:23:41.238Z,101155.06
2023-02-16T23:33:42.703Z,101149.81
2023-02-16T23:43:43.955Z,101167.22
2023-02-16T23:53:45.224Z,101158.50
